sensor_id;sensor_type;location;lat;lon;timestamp;P1;durP1;ratioP1;P2;durP2;ratioP2
59770;SDS011;45649;53.014;6.600;2023-07-30T00:00:23;8.90;;;4.50;;
59770;SDS011;45649;53.014;6.600;2023-07-30T00:02:50;9.43;;;4.37;;
59770;SDS011;45649;53.014;6.600;2023-07-30T00:05:16;7.70;;;4.53;;
59770;SDS011;45649;53.014;6.600;2023-07-30T00:07:42;8.70;;;4.73;;
59770;SDS011;45649;53.014;6.600;2023-07-30T00:10:08;8.40;;;4.70;;
59770;SDS011;45649;53.014;6.600;2023-07-30T00:12:34;9.30;;;4.77;;
59770;SDS011;45649;53.014;6.600;2023-07-30T00:15:00;8.23;;;4.30;;
59770;SDS011;45649;53.014;6.600;2023-07-30T00:17:26;10.80;;;4.80;;
59770;SDS011;45649;53.014;6.600;2023-07-30T00:19:52;8.70;;;4.50;;
59770;SDS011;45649;53.014;6.600;2023-07-30T00:22:18;9.83;;;4.60;;
59770;SDS011;45649;53.014;6.600;2023-07-30T00:24:44;10.13;;;4.50;;
59770;SDS011;45649;53.014;6.600;2023-07-30T00:27:10;8.43;;;4.60;;
59770;SDS011;45649;53.014;6.600;2023-07-30T00:29:36;8.17;;;4.17;;
59770;SDS011;45649;53.014;6.600;2023-07-30T00:32:02;9.60;;;4.60;;
59770;SDS011;45649;53.014;6.600;2023-07-30T00:34:28;8.67;;;4.80;;
59770;SDS011;45649;53.014;6.600;2023-07-30T00:36:55;13.00;;;4.73;;
59770;SDS011;45649;53.014;6.600;2023-07-30T00:39:21;11.03;;;4.60;;
59770;SDS011;45649;53.014;6.600;2023-07-30T00:41:47;15.10;;;5.13;;
59770;SDS011;45649;53.014;6.600;2023-07-30T00:44:13;11.13;;;5.30;;
59770;SDS011;45649;53.014;6.600;2023-07-30T00:46:39;9.53;;;5.00;;
59770;SDS011;45649;53.014;6.600;2023-07-30T00:49:05;10.47;;;5.17;;
59770;SDS011;45649;53.014;6.600;2023-07-30T00:51:31;12.13;;;4.77;;
59770;SDS011;45649;53.014;6.600;2023-07-30T00:53:59;8.60;;;4.80;;
59770;SDS011;45649;53.014;6.600;2023-07-30T00:56:26;13.47;;;4.73;;
59770;SDS011;45649;53.014;6.600;2023-07-30T00:58:52;10.63;;;5.10;;
59770;SDS011;45649;53.014;6.600;2023-07-30T01:01:18;13.87;;;5.47;;
59770;SDS011;45649;53.014;6.600;2023-07-30T01:03:45;11.07;;;5.07;;
59770;SDS011;45649;53.014;6.600;2023-07-30T01:06:11;14.03;;;5.33;;
59770;SDS011;45649;53.014;6.600;2023-07-30T01:08:37;14.80;;;5.60;;
59770;SDS011;45649;53.014;6.600;2023-07-30T01:11:03;12.20;;;4.93;;
59770;SDS011;45649;53.014;6.600;2023-07-30T01:13:30;14.13;;;5.37;;
59770;SDS011;45649;53.014;6.600;2023-07-30T01:15:57;14.23;;;5.20;;
59770;SDS011;45649;53.014;6.600;2023-07-30T01:18:23;13.43;;;4.70;;
59770;SDS011;45649;53.014;6.600;2023-07-30T01:20:53;12.80;;;5.30;;
59770;SDS011;45649;53.014;6.600;2023-07-30T01:23:19;13.43;;;5.53;;
59770;SDS011;45649;53.014;6.600;2023-07-30T01:25:45;16.03;;;5.63;;
59770;SDS011;45649;53.014;6.600;2023-07-30T01:28:12;16.43;;;5.73;;
59770;SDS011;45649;53.014;6.600;2023-07-30T01:30:42;13.77;;;5.33;;
59770;SDS011;45649;53.014;6.600;2023-07-30T01:33:10;14.77;;;5.67;;
59770;SDS011;45649;53.014;6.600;2023-07-30T01:35:36;12.50;;;5.30;;
59770;SDS011;45649;53.014;6.600;2023-07-30T01:38:03;11.83;;;5.37;;
59770;SDS011;45649;53.014;6.600;2023-07-30T01:40:31;17.03;;;5.70;;
59770;SDS011;45649;53.014;6.600;2023-07-30T01:42:57;15.43;;;5.23;;
59770;SDS011;45649;53.014;6.600;2023-07-30T01:45:23;13.93;;;5.70;;
59770;SDS011;45649;53.014;6.600;2023-07-30T01:47:49;14.63;;;5.47;;
59770;SDS011;45649;53.014;6.600;2023-07-30T01:50:15;17.40;;;5.80;;
59770;SDS011;45649;53.014;6.600;2023-07-30T01:52:41;12.13;;;5.23;;
59770;SDS011;45649;53.014;6.600;2023-07-30T01:55:08;19.63;;;5.80;;
59770;SDS011;45649;53.014;6.600;2023-07-30T01:57:34;14.30;;;5.47;;
59770;SDS011;45649;53.014;6.600;2023-07-30T02:00:00;17.60;;;5.70;;
59770;SDS011;45649;53.014;6.600;2023-07-30T02:04:59;16.50;;;5.40;;
59770;SDS011;45649;53.014;6.600;2023-07-30T02:07:25;15.37;;;5.13;;
59770;SDS011;45649;53.014;6.600;2023-07-30T02:09:51;17.13;;;5.40;;
59770;SDS011;45649;53.014;6.600;2023-07-30T02:12:17;20.03;;;5.80;;
59770;SDS011;45649;53.014;6.600;2023-07-30T02:14:43;16.43;;;5.83;;
59770;SDS011;45649;53.014;6.600;2023-07-30T02:17:09;14.60;;;5.20;;
59770;SDS011;45649;53.014;6.600;2023-07-30T02:19:35;15.43;;;5.13;;
59770;SDS011;45649;53.014;6.600;2023-07-30T02:22:01;10.00;;;4.80;;
59770;SDS011;45649;53.014;6.600;2023-07-30T02:24:28;16.23;;;5.43;;
59770;SDS011;45649;53.014;6.600;2023-07-30T02:26:54;16.23;;;5.57;;
59770;SDS011;45649;53.014;6.600;2023-07-30T02:29:20;14.77;;;5.50;;
59770;SDS011;45649;53.014;6.600;2023-07-30T02:31:46;14.33;;;5.53;;
59770;SDS011;45649;53.014;6.600;2023-07-30T02:34:12;14.13;;;5.33;;
59770;SDS011;45649;53.014;6.600;2023-07-30T02:36:38;16.47;;;5.40;;
59770;SDS011;45649;53.014;6.600;2023-07-30T02:39:04;16.07;;;5.50;;
59770;SDS011;45649;53.014;6.600;2023-07-30T02:41:30;14.67;;;5.10;;
59770;SDS011;45649;53.014;6.600;2023-07-30T02:43:56;11.67;;;4.90;;
59770;SDS011;45649;53.014;6.600;2023-07-30T02:46:22;12.33;;;5.13;;
59770;SDS011;45649;53.014;6.600;2023-07-30T02:48:48;12.27;;;4.43;;
59770;SDS011;45649;53.014;6.600;2023-07-30T02:51:14;13.17;;;5.27;;
59770;SDS011;45649;53.014;6.600;2023-07-30T02:53:42;12.73;;;4.80;;
59770;SDS011;45649;53.014;6.600;2023-07-30T02:56:09;12.63;;;4.87;;
59770;SDS011;45649;53.014;6.600;2023-07-30T02:58:35;12.27;;;4.63;;
59770;SDS011;45649;53.014;6.600;2023-07-30T03:01:05;11.73;;;4.53;;
59770;SDS011;45649;53.014;6.600;2023-07-30T03:03:32;11.73;;;4.60;;
59770;SDS011;45649;53.014;6.600;2023-07-30T03:05:58;12.73;;;4.43;;
59770;SDS011;45649;53.014;6.600;2023-07-30T03:08:24;13.40;;;4.57;;
59770;SDS011;45649;53.014;6.600;2023-07-30T03:10:50;13.97;;;4.40;;
59770;SDS011;45649;53.014;6.600;2023-07-30T03:13:16;11.87;;;4.30;;
59770;SDS011;45649;53.014;6.600;2023-07-30T03:15:43;14.17;;;4.70;;
59770;SDS011;45649;53.014;6.600;2023-07-30T03:18:09;17.27;;;4.70;;
59770;SDS011;45649;53.014;6.600;2023-07-30T03:20:35;13.43;;;5.03;;
59770;SDS011;45649;53.014;6.600;2023-07-30T03:23:01;13.27;;;4.33;;
59770;SDS011;45649;53.014;6.600;2023-07-30T03:25:27;9.43;;;4.20;;
59770;SDS011;45649;53.014;6.600;2023-07-30T03:27:53;13.13;;;4.50;;
59770;SDS011;45649;53.014;6.600;2023-07-30T03:30:19;16.07;;;4.53;;
59770;SDS011;45649;53.014;6.600;2023-07-30T03:32:45;12.47;;;4.20;;
59770;SDS011;45649;53.014;6.600;2023-07-30T03:35:11;12.93;;;4.60;;
59770;SDS011;45649;53.014;6.600;2023-07-30T03:37:38;11.50;;;4.60;;
59770;SDS011;45649;53.014;6.600;2023-07-30T03:40:04;12.60;;;4.40;;
59770;SDS011;45649;53.014;6.600;2023-07-30T03:42:30;15.27;;;4.50;;
59770;SDS011;45649;53.014;6.600;2023-07-30T03:44:56;11.10;;;4.50;;
59770;SDS011;45649;53.014;6.600;2023-07-30T03:47:22;12.37;;;4.33;;
59770;SDS011;45649;53.014;6.600;2023-07-30T03:49:48;7.97;;;3.93;;
59770;SDS011;45649;53.014;6.600;2023-07-30T03:52:14;11.33;;;4.43;;
59770;SDS011;45649;53.014;6.600;2023-07-30T03:54:42;11.97;;;4.40;;
59770;SDS011;45649;53.014;6.600;2023-07-30T03:57:08;10.40;;;4.40;;
59770;SDS011;45649;53.014;6.600;2023-07-30T03:59:34;13.27;;;4.33;;
59770;SDS011;45649;53.014;6.600;2023-07-30T04:02:00;10.60;;;4.03;;
59770;SDS011;45649;53.014;6.600;2023-07-30T04:04:26;14.07;;;4.20;;
59770;SDS011;45649;53.014;6.600;2023-07-30T04:06:52;10.13;;;4.07;;
59770;SDS011;45649;53.014;6.600;2023-07-30T04:09:18;10.63;;;3.80;;
59770;SDS011;45649;53.014;6.600;2023-07-30T04:11:45;10.87;;;4.20;;
59770;SDS011;45649;53.014;6.600;2023-07-30T04:14:11;11.13;;;4.33;;
59770;SDS011;45649;53.014;6.600;2023-07-30T04:16:37;11.37;;;4.00;;
59770;SDS011;45649;53.014;6.600;2023-07-30T04:19:03;11.97;;;4.00;;
59770;SDS011;45649;53.014;6.600;2023-07-30T04:21:29;10.17;;;4.00;;
59770;SDS011;45649;53.014;6.600;2023-07-30T04:23:55;8.03;;;3.67;;
59770;SDS011;45649;53.014;6.600;2023-07-30T04:26:21;10.70;;;4.03;;
59770;SDS011;45649;53.014;6.600;2023-07-30T04:28:47;10.20;;;4.33;;
59770;SDS011;45649;53.014;6.600;2023-07-30T04:31:13;11.50;;;4.00;;
59770;SDS011;45649;53.014;6.600;2023-07-30T04:33:39;13.07;;;4.40;;
59770;SDS011;45649;53.014;6.600;2023-07-30T04:36:05;11.47;;;4.30;;
59770;SDS011;45649;53.014;6.600;2023-07-30T04:38:32;16.30;;;4.50;;
59770;SDS011;45649;53.014;6.600;2023-07-30T04:40:59;9.67;;;3.67;;
59770;SDS011;45649;53.014;6.600;2023-07-30T04:43:25;12.00;;;4.60;;
59770;SDS011;45649;53.014;6.600;2023-07-30T04:45:51;9.90;;;3.70;;
59770;SDS011;45649;53.014;6.600;2023-07-30T04:48:17;10.53;;;3.77;;
59770;SDS011;45649;53.014;6.600;2023-07-30T04:50:43;12.60;;;4.07;;
59770;SDS011;45649;53.014;6.600;2023-07-30T04:53:09;12.27;;;4.17;;
59770;SDS011;45649;53.014;6.600;2023-07-30T04:55:35;14.17;;;4.37;;
59770;SDS011;45649;53.014;6.600;2023-07-30T04:58:01;11.23;;;4.20;;
59770;SDS011;45649;53.014;6.600;2023-07-30T05:00:28;10.57;;;4.13;;
59770;SDS011;45649;53.014;6.600;2023-07-30T05:02:54;12.30;;;4.00;;
59770;SDS011;45649;53.014;6.600;2023-07-30T05:05:20;12.13;;;4.20;;
59770;SDS011;45649;53.014;6.600;2023-07-30T05:07:46;11.73;;;4.00;;
59770;SDS011;45649;53.014;6.600;2023-07-30T05:10:13;12.33;;;4.40;;
59770;SDS011;45649;53.014;6.600;2023-07-30T05:12:39;11.30;;;3.87;;
59770;SDS011;45649;53.014;6.600;2023-07-30T05:15:05;13.07;;;4.00;;
59770;SDS011;45649;53.014;6.600;2023-07-30T05:17:31;17.83;;;4.70;;
59770;SDS011;45649;53.014;6.600;2023-07-30T05:19:57;11.80;;;4.33;;
59770;SDS011;45649;53.014;6.600;2023-07-30T05:22:23;15.17;;;4.70;;
59770;SDS011;45649;53.014;6.600;2023-07-30T05:24:50;14.83;;;4.80;;
59770;SDS011;45649;53.014;6.600;2023-07-30T05:27:16;12.57;;;4.20;;
59770;SDS011;45649;53.014;6.600;2023-07-30T05:29:42;17.80;;;4.53;;
59770;SDS011;45649;53.014;6.600;2023-07-30T05:32:08;11.27;;;4.13;;
59770;SDS011;45649;53.014;6.600;2023-07-30T05:34:35;12.70;;;4.30;;
59770;SDS011;45649;53.014;6.600;2023-07-30T05:37:01;12.80;;;4.30;;
59770;SDS011;45649;53.014;6.600;2023-07-30T05:39:27;10.53;;;4.17;;
59770;SDS011;45649;53.014;6.600;2023-07-30T05:41:53;12.83;;;4.60;;
59770;SDS011;45649;53.014;6.600;2023-07-30T05:44:19;13.87;;;4.47;;
59770;SDS011;45649;53.014;6.600;2023-07-30T05:46:45;14.60;;;4.30;;
59770;SDS011;45649;53.014;6.600;2023-07-30T05:49:11;14.17;;;4.47;;
59770;SDS011;45649;53.014;6.600;2023-07-30T05:51:39;14.87;;;4.50;;
59770;SDS011;45649;53.014;6.600;2023-07-30T05:54:05;13.57;;;4.70;;
59770;SDS011;45649;53.014;6.600;2023-07-30T05:56:31;12.60;;;4.07;;
59770;SDS011;45649;53.014;6.600;2023-07-30T05:58:58;10.57;;;4.10;;
59770;SDS011;45649;53.014;6.600;2023-07-30T06:01:24;16.57;;;4.83;;
59770;SDS011;45649;53.014;6.600;2023-07-30T06:03:50;11.77;;;4.17;;
59770;SDS011;45649;53.014;6.600;2023-07-30T06:06:16;14.60;;;4.50;;
59770;SDS011;45649;53.014;6.600;2023-07-30T06:08:42;10.97;;;4.27;;
59770;SDS011;45649;53.014;6.600;2023-07-30T06:11:08;11.67;;;4.17;;
59770;SDS011;45649;53.014;6.600;2023-07-30T06:13:34;15.97;;;4.20;;
59770;SDS011;45649;53.014;6.600;2023-07-30T06:16:02;13.27;;;4.40;;
59770;SDS011;45649;53.014;6.600;2023-07-30T06:18:28;11.83;;;4.27;;
59770;SDS011;45649;53.014;6.600;2023-07-30T06:20:54;11.50;;;3.90;;
59770;SDS011;45649;53.014;6.600;2023-07-30T06:23:20;12.43;;;4.43;;
59770;SDS011;45649;53.014;6.600;2023-07-30T06:25:46;17.70;;;4.80;;
59770;SDS011;45649;53.014;6.600;2023-07-30T06:28:12;12.83;;;5.03;;
59770;SDS011;45649;53.014;6.600;2023-07-30T06:30:38;15.60;;;4.87;;
59770;SDS011;45649;53.014;6.600;2023-07-30T06:33:04;13.63;;;5.10;;
59770;SDS011;45649;53.014;6.600;2023-07-30T06:35:30;18.07;;;5.10;;
59770;SDS011;45649;53.014;6.600;2023-07-30T06:37:57;16.50;;;4.63;;
59770;SDS011;45649;53.014;6.600;2023-07-30T06:40:23;16.80;;;5.17;;
59770;SDS011;45649;53.014;6.600;2023-07-30T06:42:49;15.37;;;4.90;;
59770;SDS011;45649;53.014;6.600;2023-07-30T06:45:15;14.90;;;4.80;;
59770;SDS011;45649;53.014;6.600;2023-07-30T06:47:41;14.93;;;5.30;;
59770;SDS011;45649;53.014;6.600;2023-07-30T06:50:07;17.37;;;4.63;;
59770;SDS011;45649;53.014;6.600;2023-07-30T06:52:34;18.23;;;5.10;;
59770;SDS011;45649;53.014;6.600;2023-07-30T06:55:00;18.87;;;5.20;;
59770;SDS011;45649;53.014;6.600;2023-07-30T06:57:27;13.93;;;4.43;;
59770;SDS011;45649;53.014;6.600;2023-07-30T06:59:53;15.07;;;5.23;;
59770;SDS011;45649;53.014;6.600;2023-07-30T07:02:19;16.60;;;4.60;;
59770;SDS011;45649;53.014;6.600;2023-07-30T07:04:46;15.20;;;4.70;;
59770;SDS011;45649;53.014;6.600;2023-07-30T07:07:12;12.40;;;4.37;;
59770;SDS011;45649;53.014;6.600;2023-07-30T07:09:40;15.97;;;4.40;;
59770;SDS011;45649;53.014;6.600;2023-07-30T07:12:06;15.83;;;4.77;;
59770;SDS011;45649;53.014;6.600;2023-07-30T07:14:32;15.23;;;4.47;;
59770;SDS011;45649;53.014;6.600;2023-07-30T07:16:58;10.67;;;4.17;;
59770;SDS011;45649;53.014;6.600;2023-07-30T07:19:25;14.80;;;3.97;;
59770;SDS011;45649;53.014;6.600;2023-07-30T07:21:51;14.63;;;4.50;;
59770;SDS011;45649;53.014;6.600;2023-07-30T07:24:17;14.20;;;4.37;;
59770;SDS011;45649;53.014;6.600;2023-07-30T07:26:43;12.83;;;4.23;;
59770;SDS011;45649;53.014;6.600;2023-07-30T07:29:10;14.60;;;4.27;;
59770;SDS011;45649;53.014;6.600;2023-07-30T07:31:36;13.57;;;3.87;;
59770;SDS011;45649;53.014;6.600;2023-07-30T07:34:02;13.43;;;4.00;;
59770;SDS011;45649;53.014;6.600;2023-07-30T07:36:28;12.40;;;3.80;;
59770;SDS011;45649;53.014;6.600;2023-07-30T07:38:54;13.23;;;3.90;;
59770;SDS011;45649;53.014;6.600;2023-07-30T07:41:20;12.07;;;3.77;;
59770;SDS011;45649;53.014;6.600;2023-07-30T07:43:46;11.57;;;3.33;;
59770;SDS011;45649;53.014;6.600;2023-07-30T07:46:13;10.67;;;3.63;;
59770;SDS011;45649;53.014;6.600;2023-07-30T07:48:40;10.70;;;3.20;;
59770;SDS011;45649;53.014;6.600;2023-07-30T07:51:06;14.07;;;3.60;;
59770;SDS011;45649;53.014;6.600;2023-07-30T07:53:32;14.57;;;3.60;;
59770;SDS011;45649;53.014;6.600;2023-07-30T07:55:58;11.53;;;3.30;;
59770;SDS011;45649;53.014;6.600;2023-07-30T07:58:24;7.93;;;3.33;;
59770;SDS011;45649;53.014;6.600;2023-07-30T08:00:50;9.03;;;3.27;;
59770;SDS011;45649;53.014;6.600;2023-07-30T08:03:16;10.50;;;3.50;;
59770;SDS011;45649;53.014;6.600;2023-07-30T08:05:42;12.10;;;4.03;;
59770;SDS011;45649;53.014;6.600;2023-07-30T08:08:08;10.00;;;3.30;;
59770;SDS011;45649;53.014;6.600;2023-07-30T08:10:37;8.90;;;3.07;;
59770;SDS011;45649;53.014;6.600;2023-07-30T08:13:04;9.20;;;2.97;;
59770;SDS011;45649;53.014;6.600;2023-07-30T08:15:30;12.27;;;3.60;;
59770;SDS011;45649;53.014;6.600;2023-07-30T08:17:56;9.37;;;3.30;;
59770;SDS011;45649;53.014;6.600;2023-07-30T08:20:22;11.00;;;3.07;;
59770;SDS011;45649;53.014;6.600;2023-07-30T08:22:49;15.57;;;3.60;;
59770;SDS011;45649;53.014;6.600;2023-07-30T08:25:15;17.93;;;5.90;;
59770;SDS011;45649;53.014;6.600;2023-07-30T08:27:41;6.47;;;2.83;;
59770;SDS011;45649;53.014;6.600;2023-07-30T08:30:07;12.17;;;3.47;;
59770;SDS011;45649;53.014;6.600;2023-07-30T08:32:33;10.23;;;3.20;;
59770;SDS011;45649;53.014;6.600;2023-07-30T08:34:59;9.37;;;2.90;;
59770;SDS011;45649;53.014;6.600;2023-07-30T08:37:25;8.77;;;2.80;;
59770;SDS011;45649;53.014;6.600;2023-07-30T08:39:52;9.73;;;2.60;;
59770;SDS011;45649;53.014;6.600;2023-07-30T08:42:18;8.23;;;2.83;;
59770;SDS011;45649;53.014;6.600;2023-07-30T08:44:44;9.37;;;2.73;;
59770;SDS011;45649;53.014;6.600;2023-07-30T08:47:10;10.43;;;2.90;;
59770;SDS011;45649;53.014;6.600;2023-07-30T08:49:36;10.23;;;2.73;;
59770;SDS011;45649;53.014;6.600;2023-07-30T08:52:03;8.93;;;2.70;;
59770;SDS011;45649;53.014;6.600;2023-07-30T08:54:30;7.80;;;2.63;;
59770;SDS011;45649;53.014;6.600;2023-07-30T08:56:57;8.97;;;2.50;;
59770;SDS011;45649;53.014;6.600;2023-07-30T08:59:24;9.67;;;2.87;;
59770;SDS011;45649;53.014;6.600;2023-07-30T09:01:51;7.13;;;2.83;;
59770;SDS011;45649;53.014;6.600;2023-07-30T09:04:17;9.00;;;3.00;;
59770;SDS011;45649;53.014;6.600;2023-07-30T09:06:47;10.23;;;3.10;;
59770;SDS011;45649;53.014;6.600;2023-07-30T09:09:14;9.13;;;2.83;;
59770;SDS011;45649;53.014;6.600;2023-07-30T09:11:40;9.57;;;2.90;;
59770;SDS011;45649;53.014;6.600;2023-07-30T09:14:06;11.50;;;2.87;;
59770;SDS011;45649;53.014;6.600;2023-07-30T09:16:33;7.10;;;2.90;;
59770;SDS011;45649;53.014;6.600;2023-07-30T09:18:59;11.93;;;3.20;;
59770;SDS011;45649;53.014;6.600;2023-07-30T09:21:32;10.03;;;3.00;;
59770;SDS011;45649;53.014;6.600;2023-07-30T09:24:00;10.73;;;3.10;;
59770;SDS011;45649;53.014;6.600;2023-07-30T09:26:33;9.03;;;3.17;;
59770;SDS011;45649;53.014;6.600;2023-07-30T09:29:07;8.00;;;3.03;;
59770;SDS011;45649;53.014;6.600;2023-07-30T09:31:42;8.13;;;2.97;;
59770;SDS011;45649;53.014;6.600;2023-07-30T09:34:09;6.83;;;2.60;;
59770;SDS011;45649;53.014;6.600;2023-07-30T09:36:35;9.73;;;2.80;;
59770;SDS011;45649;53.014;6.600;2023-07-30T09:39:02;7.07;;;2.30;;
59770;SDS011;45649;53.014;6.600;2023-07-30T09:41:28;5.70;;;2.17;;
59770;SDS011;45649;53.014;6.600;2023-07-30T09:43:58;6.13;;;2.00;;
59770;SDS011;45649;53.014;6.600;2023-07-30T09:46:24;3.47;;;1.73;;
59770;SDS011;45649;53.014;6.600;2023-07-30T09:48:55;5.27;;;2.00;;
59770;SDS011;45649;53.014;6.600;2023-07-30T09:51:22;4.30;;;1.80;;
59770;SDS011;45649;53.014;6.600;2023-07-30T09:53:48;4.43;;;1.70;;
59770;SDS011;45649;53.014;6.600;2023-07-30T09:56:14;3.60;;;1.73;;
59770;SDS011;45649;53.014;6.600;2023-07-30T09:58:40;3.63;;;1.60;;
59770;SDS011;45649;53.014;6.600;2023-07-30T10:01:07;4.57;;;1.90;;
59770;SDS011;45649;53.014;6.600;2023-07-30T10:03:34;3.17;;;1.60;;
59770;SDS011;45649;53.014;6.600;2023-07-30T10:06:06;2.77;;;1.50;;
59770;SDS011;45649;53.014;6.600;2023-07-30T10:08:34;3.40;;;1.60;;
59770;SDS011;45649;53.014;6.600;2023-07-30T10:11:02;4.90;;;1.70;;
59770;SDS011;45649;53.014;6.600;2023-07-30T10:13:30;3.57;;;1.50;;
59770;SDS011;45649;53.014;6.600;2023-07-30T10:15:56;4.27;;;1.90;;
59770;SDS011;45649;53.014;6.600;2023-07-30T10:18:34;4.20;;;1.80;;
59770;SDS011;45649;53.014;6.600;2023-07-30T10:21:04;4.10;;;2.00;;
59770;SDS011;45649;53.014;6.600;2023-07-30T10:23:33;4.83;;;2.17;;
59770;SDS011;45649;53.014;6.600;2023-07-30T10:25:59;3.73;;;1.97;;
59770;SDS011;45649;53.014;6.600;2023-07-30T10:28:34;4.20;;;2.07;;
59770;SDS011;45649;53.014;6.600;2023-07-30T10:31:07;3.87;;;1.70;;
59770;SDS011;45649;53.014;6.600;2023-07-30T10:33:44;5.80;;;2.20;;
59770;SDS011;45649;53.014;6.600;2023-07-30T10:36:10;4.73;;;2.13;;
59770;SDS011;45649;53.014;6.600;2023-07-30T10:38:36;4.57;;;2.30;;
59770;SDS011;45649;53.014;6.600;2023-07-30T10:41:04;6.40;;;2.20;;
59770;SDS011;45649;53.014;6.600;2023-07-30T10:43:30;5.53;;;2.20;;
59770;SDS011;45649;53.014;6.600;2023-07-30T10:45:57;8.27;;;2.40;;
59770;SDS011;45649;53.014;6.600;2023-07-30T10:48:30;5.40;;;2.00;;
59770;SDS011;45649;53.014;6.600;2023-07-30T10:50:57;6.53;;;2.23;;
59770;SDS011;45649;53.014;6.600;2023-07-30T10:53:23;8.20;;;2.20;;
59770;SDS011;45649;53.014;6.600;2023-07-30T10:55:49;5.33;;;1.93;;
59770;SDS011;45649;53.014;6.600;2023-07-30T10:58:15;6.40;;;2.20;;
59770;SDS011;45649;53.014;6.600;2023-07-30T11:00:41;8.03;;;2.33;;
59770;SDS011;45649;53.014;6.600;2023-07-30T11:03:07;6.60;;;2.10;;
59770;SDS011;45649;53.014;6.600;2023-07-30T11:05:33;7.13;;;2.40;;
59770;SDS011;45649;53.014;6.600;2023-07-30T11:07:59;6.97;;;2.10;;
59770;SDS011;45649;53.014;6.600;2023-07-30T11:10:26;6.70;;;2.20;;
59770;SDS011;45649;53.014;6.600;2023-07-30T11:12:52;7.43;;;2.30;;
59770;SDS011;45649;53.014;6.600;2023-07-30T11:15:18;6.27;;;2.20;;
59770;SDS011;45649;53.014;6.600;2023-07-30T11:17:44;6.27;;;2.20;;
59770;SDS011;45649;53.014;6.600;2023-07-30T11:20:26;5.23;;;1.80;;
59770;SDS011;45649;53.014;6.600;2023-07-30T11:22:53;7.30;;;2.20;;
59770;SDS011;45649;53.014;6.600;2023-07-30T11:25:19;7.73;;;2.07;;
59770;SDS011;45649;53.014;6.600;2023-07-30T11:27:46;7.50;;;2.20;;
59770;SDS011;45649;53.014;6.600;2023-07-30T11:30:12;7.30;;;2.23;;
59770;SDS011;45649;53.014;6.600;2023-07-30T11:32:38;5.80;;;2.13;;
59770;SDS011;45649;53.014;6.600;2023-07-30T11:35:05;6.97;;;2.30;;
59770;SDS011;45649;53.014;6.600;2023-07-30T11:37:31;7.07;;;1.80;;
59770;SDS011;45649;53.014;6.600;2023-07-30T11:39:58;4.40;;;1.80;;
59770;SDS011;45649;53.014;6.600;2023-07-30T11:42:24;6.00;;;1.77;;
59770;SDS011;45649;53.014;6.600;2023-07-30T11:44:50;5.27;;;1.83;;
59770;SDS011;45649;53.014;6.600;2023-07-30T11:47:22;6.07;;;1.97;;
59770;SDS011;45649;53.014;6.600;2023-07-30T11:49:56;5.67;;;1.90;;
59770;SDS011;45649;53.014;6.600;2023-07-30T11:52:22;6.97;;;1.93;;
59770;SDS011;45649;53.014;6.600;2023-07-30T11:54:48;6.13;;;2.10;;
59770;SDS011;45649;53.014;6.600;2023-07-30T11:57:14;4.13;;;1.70;;
59770;SDS011;45649;53.014;6.600;2023-07-30T11:59:40;3.93;;;1.83;;
59770;SDS011;45649;53.014;6.600;2023-07-30T12:02:07;6.97;;;2.10;;
59770;SDS011;45649;53.014;6.600;2023-07-30T12:04:44;7.47;;;2.03;;
59770;SDS011;45649;53.014;6.600;2023-07-30T12:07:10;7.27;;;1.93;;
59770;SDS011;45649;53.014;6.600;2023-07-30T12:09:36;6.33;;;1.80;;
59770;SDS011;45649;53.014;6.600;2023-07-30T12:12:03;7.47;;;2.23;;
59770;SDS011;45649;53.014;6.600;2023-07-30T12:14:42;6.93;;;2.40;;
59770;SDS011;45649;53.014;6.600;2023-07-30T12:17:08;7.87;;;1.90;;
59770;SDS011;45649;53.014;6.600;2023-07-30T12:19:34;6.67;;;2.20;;
59770;SDS011;45649;53.014;6.600;2023-07-30T12:22:01;5.93;;;1.87;;
59770;SDS011;45649;53.014;6.600;2023-07-30T12:24:27;7.17;;;2.10;;
59770;SDS011;45649;53.014;6.600;2023-07-30T12:26:53;3.80;;;1.60;;
59770;SDS011;45649;53.014;6.600;2023-07-30T12:29:19;3.13;;;1.60;;
59770;SDS011;45649;53.014;6.600;2023-07-30T12:31:45;4.57;;;1.70;;
59770;SDS011;45649;53.014;6.600;2023-07-30T12:34:12;5.40;;;1.97;;
59770;SDS011;45649;53.014;6.600;2023-07-30T12:36:38;6.87;;;2.13;;
59770;SDS011;45649;53.014;6.600;2023-07-30T12:39:04;4.13;;;1.80;;
59770;SDS011;45649;53.014;6.600;2023-07-30T12:41:31;4.10;;;1.70;;
59770;SDS011;45649;53.014;6.600;2023-07-30T12:43:57;2.20;;;1.40;;
59770;SDS011;45649;53.014;6.600;2023-07-30T12:46:23;6.57;;;1.97;;
59770;SDS011;45649;53.014;6.600;2023-07-30T12:48:49;9.07;;;2.87;;
59770;SDS011;45649;53.014;6.600;2023-07-30T12:51:15;4.37;;;1.30;;
59770;SDS011;45649;53.014;6.600;2023-07-30T12:53:41;3.73;;;1.40;;
59770;SDS011;45649;53.014;6.600;2023-07-30T12:56:07;3.63;;;1.43;;
59770;SDS011;45649;53.014;6.600;2023-07-30T12:58:33;2.67;;;1.53;;
59770;SDS011;45649;53.014;6.600;2023-07-30T13:00:59;2.57;;;1.50;;
59770;SDS011;45649;53.014;6.600;2023-07-30T13:03:26;4.37;;;1.70;;
59770;SDS011;45649;53.014;6.600;2023-07-30T13:05:52;4.77;;;1.67;;
59770;SDS011;45649;53.014;6.600;2023-07-30T13:08:18;4.90;;;2.00;;
59770;SDS011;45649;53.014;6.600;2023-07-30T13:10:44;5.00;;;1.83;;
59770;SDS011;45649;53.014;6.600;2023-07-30T13:13:10;5.93;;;2.47;;
59770;SDS011;45649;53.014;6.600;2023-07-30T13:15:36;4.90;;;1.80;;
59770;SDS011;45649;53.014;6.600;2023-07-30T13:18:02;6.33;;;1.80;;
59770;SDS011;45649;53.014;6.600;2023-07-30T13:20:28;7.97;;;2.37;;
59770;SDS011;45649;53.014;6.600;2023-07-30T13:22:56;6.63;;;2.20;;
59770;SDS011;45649;53.014;6.600;2023-07-30T13:25:22;5.93;;;2.07;;
59770;SDS011;45649;53.014;6.600;2023-07-30T13:27:49;5.37;;;2.10;;
59770;SDS011;45649;53.014;6.600;2023-07-30T13:30:15;6.47;;;2.10;;
59770;SDS011;45649;53.014;6.600;2023-07-30T13:32:41;7.07;;;2.07;;
59770;SDS011;45649;53.014;6.600;2023-07-30T13:35:07;6.20;;;2.00;;
59770;SDS011;45649;53.014;6.600;2023-07-30T13:37:33;6.93;;;1.90;;
59770;SDS011;45649;53.014;6.600;2023-07-30T13:40:00;6.13;;;2.00;;
59770;SDS011;45649;53.014;6.600;2023-07-30T13:42:26;6.87;;;2.17;;
59770;SDS011;45649;53.014;6.600;2023-07-30T13:44:52;5.00;;;1.63;;
59770;SDS011;45649;53.014;6.600;2023-07-30T13:47:18;4.67;;;1.77;;
59770;SDS011;45649;53.014;6.600;2023-07-30T13:49:44;5.53;;;1.90;;
59770;SDS011;45649;53.014;6.600;2023-07-30T13:52:12;8.67;;;2.10;;
59770;SDS011;45649;53.014;6.600;2023-07-30T13:54:38;9.93;;;2.20;;
59770;SDS011;45649;53.014;6.600;2023-07-30T13:57:04;6.50;;;1.90;;
59770;SDS011;45649;53.014;6.600;2023-07-30T13:59:31;4.63;;;2.00;;
59770;SDS011;45649;53.014;6.600;2023-07-30T14:01:57;3.60;;;1.63;;
59770;SDS011;45649;53.014;6.600;2023-07-30T14:04:23;5.93;;;1.77;;
59770;SDS011;45649;53.014;6.600;2023-07-30T14:06:49;5.90;;;1.80;;
59770;SDS011;45649;53.014;6.600;2023-07-30T14:09:15;6.10;;;1.90;;
59770;SDS011;45649;53.014;6.600;2023-07-30T14:11:41;5.10;;;1.77;;
59770;SDS011;45649;53.014;6.600;2023-07-30T14:14:10;4.63;;;1.80;;
59770;SDS011;45649;53.014;6.600;2023-07-30T14:16:36;8.00;;;2.10;;
59770;SDS011;45649;53.014;6.600;2023-07-30T14:19:02;3.80;;;1.70;;
59770;SDS011;45649;53.014;6.600;2023-07-30T14:21:29;5.67;;;1.90;;
59770;SDS011;45649;53.014;6.600;2023-07-30T14:23:55;5.53;;;1.70;;
59770;SDS011;45649;53.014;6.600;2023-07-30T14:26:21;4.23;;;1.70;;
59770;SDS011;45649;53.014;6.600;2023-07-30T14:28:47;6.40;;;1.80;;
59770;SDS011;45649;53.014;6.600;2023-07-30T14:31:13;4.57;;;1.60;;
59770;SDS011;45649;53.014;6.600;2023-07-30T14:33:39;3.67;;;1.67;;
59770;SDS011;45649;53.014;6.600;2023-07-30T14:36:06;6.93;;;1.93;;
59770;SDS011;45649;53.014;6.600;2023-07-30T14:38:32;3.30;;;1.70;;